Nanaimo Airport, British Columbia

Past 24 Hour Conditions

Date / Time
(PST)
Conditions Temp
(°C)
Humidity
(%)
Dew Point
(°C)
Wind
(km/h)
Pressure
(kPa)
Vis
(km)
Wind Chill
24 November 2014
5:00 N/A 2 96 1 NNE 7 102.7 N/A *
4:00 N/A 2 96 1 N 4 102.7 N/A *
3:00 N/A 1 96 1 SSE 7 102.7 N/A *
2:00 N/A 0   96 -1 ENE 9 102.7 N/A -3
1:00 N/A 0   96 0 calm 102.7 N/A *
00:00 N/A 1 96 0 calm 102.7 N/A *
23 November 2014
23:00 N/A 1 96 0 WNW 2 102.6 N/A *
22:00 N/A 1 95 0 WSW 4 102.5 N/A *
21:00 Clear 1 94 0 SSW 4 102.5 32 *
20:00 Clear 1 93 0 S 3 102.4 32 *
19:00 Clear 5 85 2 SW 12 102.3 32 *
18:00 Clear 3 90 2 NE 4 102.3 32 *
17:00 Mainly Clear 6 74 2 N 2 102.1 32 *
16:00 Mainly Sunny 10 57 2 NNW 4 102.1 32 *
15:00 Mainly Sunny 12   50 2 W 16 102.0 32 *
14:00 Mainly Sunny 12   50 2 W 13 101.9 32 *
13:00 Partly Cloudy 12   54 3 WNW 13 101.9 32 *
12:00 Partly Cloudy 11 58 4 WSW 13 101.8 24 *
11:00 Partly Cloudy 10 76 6 WSW 9 101.7 24 *
10:00 Partly Cloudy 8 91 7 N 7 101.7 24 *
9:00 Light Rainshower 6 97 6 WSW 3 101.6 24 *
8:00 Partly Cloudy 4 96 4 NW 4 101.5 24 *
7:00 Mostly Cloudy 5 98 4 WSW 5 101.5 24 *
6:00 Partly Cloudy 6 97 5 WSW 4 101.4 24 *
5:00 N/A 7 95 6 WNW 11 101.4 N/A *
N/A Not available
↑ Highest temperature
↓ Lowest temperature
* Value not significant.

If you require additional historical weather information, please visit Climate Data Online.

Date modified: